createdAt,value
2022-11-08T00:00:13.055Z,39.27
2022-11-08T00:02:41.236Z,36.00
2022-11-08T00:05:28.133Z,42.33
2022-11-08T00:08:13.985Z,60.23
2022-11-08T00:10:59.721Z,66.23
2022-11-08T00:13:45.191Z,50.43
2022-11-08T00:16:13.202Z,46.90
2022-11-08T00:18:41.235Z,43.23
2022-11-08T00:21:10.609Z,38.83
2022-11-08T00:23:38.607Z,35.07
2022-11-08T00:26:06.896Z,35.70
2022-11-08T00:28:34.937Z,40.40
2022-11-08T00:31:07.024Z,35.77
2022-11-08T00:33:35.075Z,32.00
2022-11-08T00:36:03.974Z,37.27
2022-11-08T00:38:33.342Z,36.60
2022-11-08T00:41:01.414Z,36.33
2022-11-08T00:43:29.435Z,35.20
2022-11-08T00:45:57.438Z,35.10
2022-11-08T00:48:25.477Z,48.13
2022-11-08T00:50:53.638Z,39.73
2022-11-08T00:53:21.634Z,32.70
2022-11-08T00:55:59.041Z,34.67
2022-11-08T00:58:28.479Z,29.67
2022-11-08T01:00:57.060Z,35.40
2022-11-08T01:03:26.039Z,29.00
2022-11-08T01:05:55.481Z,31.03
2022-11-08T01:08:24.548Z,33.37
2022-11-08T01:10:54.023Z,33.77
2022-11-08T01:13:22.337Z,26.80
2022-11-08T01:15:50.808Z,31.20
2022-11-08T01:18:19.832Z,31.77
2022-11-08T01:20:49.912Z,27.30
2022-11-08T01:23:19.152Z,27.37
2022-11-08T01:25:48.884Z,27.93
2022-11-08T01:28:19.052Z,28.23
2022-11-08T01:30:47.671Z,29.10
2022-11-08T01:33:16.436Z,32.33
2022-11-08T01:35:45.773Z,25.13
2022-11-08T01:38:13.947Z,35.83
2022-11-08T01:40:45.915Z,28.83
2022-11-08T01:43:43.385Z,28.63
2022-11-08T01:46:33.302Z,29.63
2022-11-08T01:49:22.831Z,28.90
2022-11-08T01:51:58.723Z,25.90
2022-11-08T01:54:33.508Z,27.83
2022-11-08T01:57:05.184Z,25.43
2022-11-08T01:59:37.098Z,31.07
2022-11-08T02:02:06.141Z,24.20
2022-11-08T02:04:34.865Z,27.27
2022-11-08T02:07:03.666Z,25.80
2022-11-08T02:09:32.653Z,25.83
2022-11-08T02:12:01.440Z,25.73
2022-11-08T02:14:29.691Z,23.13
2022-11-08T02:16:59.098Z,29.47
2022-11-08T02:19:35.053Z,25.00
2022-11-08T02:22:09.330Z,26.00
2022-11-08T02:24:38.929Z,30.33
2022-11-08T02:27:06.884Z,24.30
2022-11-08T02:29:36.854Z,26.90
2022-11-08T02:32:06.172Z,27.30
2022-11-08T02:34:37.575Z,24.10
2022-11-08T02:37:06.910Z,26.60
2022-11-08T02:39:35.109Z,24.73
2022-11-08T02:42:04.760Z,24.90
2022-11-08T02:44:32.759Z,30.07
2022-11-08T02:47:00.843Z,26.97
2022-11-08T02:49:28.896Z,25.33
2022-11-08T02:51:56.987Z,24.37
2022-11-08T02:54:25.016Z,25.80
2022-11-08T02:56:53.048Z,23.47
2022-11-08T02:59:22.447Z,23.90
2022-11-08T03:01:50.518Z,24.07
2022-11-08T03:04:18.597Z,26.67
2022-11-08T03:06:46.930Z,23.83
2022-11-08T03:09:14.934Z,23.17
2022-11-08T03:11:43.189Z,29.10
2022-11-08T03:14:11.275Z,26.47
2022-11-08T03:16:40.666Z,23.97
2022-11-08T03:19:08.645Z,26.33
2022-11-08T03:21:37.824Z,23.80
2022-11-08T03:24:06.297Z,24.03
2022-11-08T03:26:34.371Z,25.37
2022-11-08T03:29:02.343Z,22.83
2022-11-08T03:31:30.302Z,23.93
2022-11-08T03:33:59.632Z,26.90
2022-11-08T03:36:27.577Z,21.87
2022-11-08T03:38:55.540Z,26.67
2022-11-08T03:41:23.524Z,25.07
2022-11-08T03:43:51.504Z,26.43
2022-11-08T03:46:19.538Z,25.33
2022-11-08T03:48:47.519Z,26.90
2022-11-08T03:51:16.885Z,22.70
2022-11-08T03:53:44.831Z,24.73
2022-11-08T03:56:12.862Z,30.00
2022-11-08T03:58:40.848Z,23.07
2022-11-08T04:01:09.470Z,27.27
2022-11-08T04:03:37.480Z,25.10
2022-11-08T04:06:05.675Z,23.97
2022-11-08T04:08:35.046Z,25.93
2022-11-08T04:11:23.482Z,23.53
2022-11-08T04:14:09.297Z,24.60
2022-11-08T04:16:37.488Z,22.60
2022-11-08T04:19:23.293Z,24.77
2022-11-08T04:21:53.147Z,21.80
2022-11-08T04:24:22.927Z,24.47
2022-11-08T04:26:50.972Z,23.33
2022-11-08T04:29:19.011Z,24.57
2022-11-08T04:31:46.991Z,24.23
2022-11-08T04:34:14.968Z,22.93
2022-11-08T04:36:43.003Z,24.80
2022-11-08T04:39:11.049Z,26.30
2022-11-08T04:41:40.435Z,23.97
2022-11-08T04:44:08.632Z,23.83
2022-11-08T04:46:36.675Z,25.00
2022-11-08T04:49:04.815Z,24.70
2022-11-08T04:51:34.199Z,26.07
2022-11-08T04:54:05.033Z,25.50
2022-11-08T04:56:33.333Z,25.90
2022-11-08T04:59:02.746Z,24.63
2022-11-08T05:01:32.463Z,25.53
2022-11-08T05:04:00.534Z,21.23
2022-11-08T05:06:30.537Z,23.03
2022-11-08T05:09:00.359Z,26.73
2022-11-08T05:11:30.382Z,22.23
2022-11-08T05:13:58.992Z,24.63
2022-11-08T05:16:30.615Z,22.20
2022-11-08T05:18:58.924Z,29.10
2022-11-08T05:21:44.716Z,24.20
2022-11-08T05:24:14.601Z,28.73
2022-11-08T05:26:45.273Z,27.37
2022-11-08T05:29:15.284Z,27.60
2022-11-08T05:31:44.704Z,26.63
2022-11-08T05:34:12.728Z,28.40
2022-11-08T05:36:40.746Z,23.73
2022-11-08T05:39:08.949Z,26.87
2022-11-08T05:41:37.039Z,24.50
2022-11-08T05:44:05.224Z,26.83
2022-11-08T05:46:34.300Z,27.30
2022-11-08T05:49:03.903Z,29.13
2022-11-08T05:51:33.766Z,30.80
2022-11-08T05:54:01.805Z,30.17
2022-11-08T05:56:30.058Z,28.90
2022-11-08T05:58:58.398Z,31.67
2022-11-08T06:01:26.590Z,30.13
2022-11-08T06:03:55.229Z,29.20
2022-11-08T06:06:24.730Z,27.73
2022-11-08T06:08:54.683Z,28.90
2022-11-08T06:11:24.819Z,30.17
2022-11-08T06:13:53.976Z,33.13
2022-11-08T06:16:23.464Z,33.37
2022-11-08T06:18:51.499Z,28.73
2022-11-08T06:21:21.247Z,30.33
2022-11-08T06:23:53.824Z,28.53
2022-11-08T06:26:21.892Z,34.63
2022-11-08T06:28:49.851Z,31.27
2022-11-08T06:31:17.978Z,25.70
2022-11-08T06:33:46.705Z,27.53
2022-11-08T06:36:14.695Z,29.90
2022-11-08T06:38:42.684Z,27.07
2022-11-08T06:41:18.406Z,31.60
2022-11-08T06:43:46.402Z,30.10
2022-11-08T06:46:14.405Z,32.63
2022-11-08T06:48:42.646Z,32.43
2022-11-08T06:51:10.617Z,32.93
2022-11-08T06:53:38.703Z,32.83
2022-11-08T06:56:06.914Z,30.77
2022-11-08T06:58:36.292Z,28.67
2022-11-08T07:01:05.634Z,31.27
2022-11-08T07:03:34.384Z,30.20
2022-11-08T07:06:03.884Z,27.10
2022-11-08T07:08:32.669Z,26.47
2022-11-08T07:11:01.262Z,29.43
2022-11-08T07:13:29.355Z,33.30
2022-11-08T07:16:00.983Z,30.53
2022-11-08T07:18:29.838Z,34.43
2022-11-08T07:21:01.237Z,30.07
2022-11-08T07:23:29.648Z,25.93
2022-11-08T07:25:57.677Z,27.17
2022-11-08T07:28:25.790Z,22.90
2022-11-08T07:31:01.380Z,30.87
2022-11-08T07:33:29.989Z,24.87
2022-11-08T07:35:58.362Z,24.93
2022-11-08T07:38:27.113Z,28.07
2022-11-08T07:40:58.170Z,27.13
2022-11-08T07:43:27.576Z,26.17
2022-11-08T07:45:57.463Z,30.03
2022-11-08T07:48:27.725Z,27.10
2022-11-08T07:50:56.424Z,29.60
2022-11-08T07:53:24.896Z,25.60
2022-11-08T07:55:53.350Z,25.97
2022-11-08T07:58:21.345Z,24.50
2022-11-08T08:00:50.305Z,29.60
2022-11-08T08:03:19.553Z,24.77
2022-11-08T08:05:59.562Z,23.70
2022-11-08T08:08:30.007Z,23.97
2022-11-08T08:11:00.216Z,22.90
2022-11-08T08:13:28.279Z,22.27
2022-11-08T08:16:00.133Z,21.17
2022-11-08T08:18:28.560Z,27.63
2022-11-08T08:20:57.996Z,22.97
2022-11-08T08:23:26.126Z,22.87
2022-11-08T08:25:54.477Z,24.03
2022-11-08T08:28:22.874Z,19.02
2022-11-08T08:30:50.944Z,22.75
2022-11-08T08:33:28.806Z,18.57
2022-11-08T08:36:01.295Z,18.53
2022-11-08T08:38:30.509Z,18.77
2022-11-08T08:40:58.980Z,20.77
2022-11-08T08:43:28.624Z,19.07
2022-11-08T08:45:59.929Z,16.10
2022-11-08T08:48:28.150Z,22.20
2022-11-08T08:50:56.834Z,14.87
2022-11-08T08:53:26.718Z,19.48
2022-11-08T08:55:54.713Z,19.13
2022-11-08T08:58:23.466Z,17.48
2022-11-08T09:03:39.515Z,15.55
2022-11-08T09:06:07.762Z,15.27
2022-11-08T09:08:37.366Z,19.27
2022-11-08T09:11:06.012Z,17.85
2022-11-08T09:13:34.051Z,18.95
2022-11-08T09:16:03.701Z,16.50
2022-11-08T09:18:32.268Z,14.68
2022-11-08T09:21:01.038Z,17.92
2022-11-08T09:23:29.246Z,12.90
2022-11-08T09:26:02.850Z,15.23
2022-11-08T09:28:32.005Z,17.25
2022-11-08T09:31:05.715Z,20.73
2022-11-08T09:33:34.190Z,16.42
2022-11-08T09:36:02.816Z,15.48
2022-11-08T09:38:31.559Z,19.13
2022-11-08T09:41:24.102Z,12.77
2022-11-08T09:44:05.769Z,17.65
2022-11-08T09:46:42.196Z,12.68
2022-11-08T09:49:16.613Z,16.15
2022-11-08T09:51:45.135Z,11.52
2022-11-08T09:54:21.490Z,17.75
2022-11-08T09:56:54.351Z,12.20
2022-11-08T09:59:35.883Z,12.80
2022-11-08T10:02:05.028Z,16.55
2022-11-08T10:04:36.064Z,13.20
2022-11-08T10:07:21.890Z,16.83
2022-11-08T10:10:09.848Z,16.33
2022-11-08T10:12:45.081Z,10.85
2022-11-08T10:15:22.603Z,14.32
2022-11-08T10:18:16.153Z,12.38
2022-11-08T10:20:57.405Z,10.60
2022-11-08T10:23:36.851Z,16.30
2022-11-08T10:26:11.533Z,16.98
2022-11-08T10:28:44.928Z,12.65
2022-11-08T10:31:14.612Z,13.20
2022-11-08T10:33:48.749Z,11.10
2022-11-08T10:36:23.490Z,13.15
2022-11-08T10:39:00.862Z,11.85
2022-11-08T10:41:39.576Z,10.10
2022-11-08T10:44:15.354Z,15.40
2022-11-08T10:46:45.454Z,12.70
2022-11-08T10:49:17.708Z,13.15
2022-11-08T10:51:47.028Z,9.38
2022-11-08T10:54:44.042Z,13.88
2022-11-08T10:57:13.819Z,13.00
2022-11-08T10:59:44.211Z,11.13
2022-11-08T11:02:34.946Z,9.23
2022-11-08T11:05:25.326Z,13.15
2022-11-08T11:08:06.561Z,13.35
2022-11-08T11:10:36.269Z,14.77
2022-11-08T11:13:10.890Z,12.77
2022-11-08T11:15:47.457Z,11.20
2022-11-08T11:18:27.282Z,12.65
2022-11-08T11:21:08.253Z,11.15
2022-11-08T11:23:39.612Z,8.75
2022-11-08T11:26:08.879Z,13.43
2022-11-08T11:28:37.201Z,12.75
2022-11-08T11:31:18.233Z,8.30
2022-11-08T11:33:47.550Z,16.45
2022-11-08T11:36:20.493Z,11.20
2022-11-08T11:38:53.810Z,15.00
2022-11-08T11:41:29.181Z,9.35
2022-11-08T11:44:06.751Z,9.80
2022-11-08T11:46:44.875Z,10.73
2022-11-08T11:49:17.768Z,7.80
2022-11-08T11:51:45.868Z,13.05
2022-11-08T11:54:17.070Z,9.82
2022-11-08T11:56:53.222Z,9.18
2022-11-08T11:59:45.107Z,10.15
2022-11-08T12:02:42.663Z,8.68
2022-11-08T12:05:26.550Z,9.57
2022-11-08T12:08:09.184Z,10.73
2022-11-08T12:10:51.682Z,12.10
2022-11-08T12:13:27.612Z,8.13
2022-11-08T12:16:02.121Z,6.70
2022-11-08T12:18:56.847Z,9.73
2022-11-08T12:21:32.598Z,10.25
2022-11-08T12:24:12.050Z,11.70
2022-11-08T12:26:49.815Z,12.55
2022-11-08T12:29:24.636Z,7.88
2022-11-08T12:32:02.877Z,11.45
2022-11-08T12:34:43.377Z,8.65
2022-11-08T12:37:23.552Z,6.15
2022-11-08T12:39:58.564Z,9.43
2022-11-08T12:42:42.942Z,10.68
2022-11-08T12:45:26.865Z,11.55
2022-11-08T12:48:00.203Z,20.05
2022-11-08T12:50:35.534Z,9.57
2022-11-08T12:53:31.851Z,9.63
2022-11-08T12:56:01.611Z,8.57
2022-11-08T12:58:36.574Z,9.48
2022-11-08T13:01:09.502Z,10.85
2022-11-08T13:04:03.163Z,8.77
2022-11-08T13:06:45.592Z,5.78
2022-11-08T13:09:22.414Z,9.20
2022-11-08T13:12:01.309Z,6.65
2022-11-08T13:14:29.886Z,10.02
2022-11-08T13:17:17.351Z,16.90
2022-11-08T13:20:05.661Z,7.70
2022-11-08T13:23:01.714Z,9.50
2022-11-08T13:25:41.199Z,9.00
2022-11-08T13:28:44.407Z,8.55
2022-11-08T13:31:27.027Z,7.28
2022-11-08T13:34:42.922Z,6.45
2022-11-08T13:37:26.650Z,8.77
2022-11-08T13:40:23.770Z,7.15
2022-11-08T13:43:21.040Z,9.02
2022-11-08T13:45:49.840Z,10.55
2022-11-08T13:48:44.202Z,7.03
2022-11-08T13:51:30.885Z,6.53
2022-11-08T13:54:01.080Z,9.13
2022-11-08T13:56:50.077Z,7.82
2022-11-08T13:59:55.041Z,9.05
2022-11-08T14:02:34.200Z,6.70
2022-11-08T14:05:34.950Z,11.02
2022-11-08T14:08:29.285Z,8.10
2022-11-08T14:11:30.006Z,7.60
2022-11-08T14:14:19.006Z,8.82
2022-11-08T14:17:01.271Z,7.53
2022-11-08T14:19:33.087Z,7.85
2022-11-08T14:22:02.897Z,8.98
2022-11-08T14:24:36.597Z,9.10
2022-11-08T14:27:04.934Z,11.25
2022-11-08T14:29:34.359Z,7.05
2022-11-08T14:32:04.281Z,7.70
2022-11-08T14:34:34.571Z,13.48
2022-11-08T14:37:03.848Z,9.82
2022-11-08T14:39:34.357Z,26.45
2022-11-08T14:42:03.758Z,48.33
2022-11-08T14:44:32.077Z,55.30
2022-11-08T14:47:01.575Z,23.52
2022-11-08T14:49:33.330Z,18.60
2022-11-08T14:52:14.160Z,16.70
2022-11-08T14:54:44.904Z,11.15
2022-11-08T14:57:32.470Z,10.07
2022-11-08T15:00:03.364Z,14.23
2022-11-08T15:02:33.120Z,12.20
2022-11-08T15:05:01.195Z,12.27
2022-11-08T15:07:29.228Z,13.15
2022-11-08T15:09:57.277Z,12.75
2022-11-08T15:12:26.449Z,20.27
2022-11-08T15:14:58.710Z,12.68
2022-11-08T15:17:36.997Z,11.40
2022-11-08T15:20:23.628Z,13.55
2022-11-08T15:22:56.299Z,11.38
2022-11-08T15:25:30.072Z,12.88
2022-11-08T15:27:59.944Z,12.95
2022-11-08T15:30:38.804Z,13.25
2022-11-08T15:33:22.143Z,9.80
2022-11-08T15:35:50.793Z,13.80
2022-11-08T15:38:32.813Z,13.18
2022-11-08T15:41:03.585Z,15.18
2022-11-08T15:43:40.325Z,13.45
2022-11-08T15:46:27.566Z,13.93
2022-11-08T15:49:00.791Z,17.63
2022-11-08T15:51:28.779Z,14.52
2022-11-08T15:53:56.805Z,14.93
2022-11-08T15:56:24.812Z,17.63
2022-11-08T15:58:52.823Z,18.67
2022-11-08T16:01:22.951Z,16.48
2022-11-08T16:03:51.052Z,14.25
2022-11-08T16:06:20.421Z,14.77
2022-11-08T16:08:48.418Z,17.27
2022-11-08T16:11:21.654Z,16.50
2022-11-08T16:13:51.993Z,17.25
2022-11-08T16:16:20.035Z,21.35
2022-11-08T16:18:48.060Z,15.52
2022-11-08T16:21:16.427Z,19.02
2022-11-08T16:23:45.826Z,17.07
2022-11-08T16:26:17.381Z,18.20
2022-11-08T16:28:46.025Z,15.10
2022-11-08T16:31:15.523Z,17.92
2022-11-08T16:33:45.088Z,17.73
2022-11-08T16:36:18.729Z,17.37
2022-11-08T16:38:52.731Z,18.05
2022-11-08T16:41:21.370Z,17.30
2022-11-08T16:43:49.537Z,19.67
2022-11-08T16:46:20.292Z,20.48
2022-11-08T16:48:50.391Z,18.85
2022-11-08T16:51:19.947Z,20.75
2022-11-08T16:53:50.093Z,24.43
2022-11-08T16:56:18.550Z,22.70
2022-11-08T16:58:46.820Z,23.08
2022-11-08T17:01:17.137Z,20.95
2022-11-08T17:03:45.358Z,23.27
2022-11-08T17:06:17.958Z,18.48
2022-11-08T17:08:46.321Z,22.13
2022-11-08T17:11:18.336Z,20.98
2022-11-08T17:13:46.673Z,22.07
2022-11-08T17:16:15.776Z,25.93
2022-11-08T17:18:45.663Z,22.83
2022-11-08T17:21:43.248Z,23.77
2022-11-08T17:24:04.810Z,25.63
2022-11-08T17:26:34.138Z,21.03
2022-11-08T17:29:02.139Z,23.97
2022-11-08T17:31:30.122Z,28.08
2022-11-08T17:33:58.118Z,26.07
2022-11-08T17:36:26.101Z,25.90
2022-11-08T17:38:54.086Z,29.90
2022-11-08T17:41:22.125Z,30.83
2022-11-08T17:43:51.633Z,34.60
2022-11-08T17:46:19.608Z,31.63
2022-11-08T17:48:47.616Z,29.53
2022-11-08T17:51:15.738Z,33.30
2022-11-08T17:53:44.133Z,30.00
2022-11-08T17:56:13.105Z,28.50
2022-11-08T17:58:41.792Z,28.20
2022-11-08T18:01:11.297Z,36.67
2022-11-08T18:03:39.670Z,45.07
2022-11-08T18:06:11.417Z,49.37
2022-11-08T18:08:39.710Z,36.67
2022-11-08T18:11:08.025Z,37.53
2022-11-08T18:13:36.232Z,29.60
2022-11-08T18:16:08.534Z,33.67
2022-11-08T18:18:38.013Z,39.13
2022-11-08T18:21:06.501Z,35.23
2022-11-08T18:23:34.643Z,41.77
2022-11-08T18:26:02.660Z,42.67
2022-11-08T18:28:30.664Z,39.07
2022-11-08T18:31:05.897Z,38.60
2022-11-08T18:33:34.040Z,34.07
2022-11-08T18:36:06.137Z,36.37
2022-11-08T18:38:35.536Z,38.23
2022-11-08T18:41:03.788Z,37.43
2022-11-08T18:43:31.897Z,35.40
2022-11-08T18:46:04.011Z,39.60
2022-11-08T18:48:35.541Z,40.27
2022-11-08T18:51:05.651Z,37.57
2022-11-08T18:53:34.017Z,44.67
2022-11-08T18:56:02.337Z,36.77
2022-11-08T18:58:30.521Z,34.60
2022-11-08T19:00:59.251Z,37.63
2022-11-08T19:03:28.174Z,33.63
2022-11-08T19:05:56.439Z,34.30
2022-11-08T19:08:28.661Z,41.70
2022-11-08T19:10:58.750Z,42.07
2022-11-08T19:13:28.146Z,38.57
2022-11-08T19:16:00.041Z,37.50
2022-11-08T19:18:29.539Z,38.60
2022-11-08T19:20:58.561Z,37.43
2022-11-08T19:23:28.182Z,39.37
2022-11-08T19:25:57.984Z,38.67
2022-11-08T19:28:30.274Z,38.10
2022-11-08T19:31:01.391Z,38.90
2022-11-08T19:33:31.443Z,40.13
2022-11-08T19:36:03.139Z,40.03
2022-11-08T19:38:32.909Z,41.13
2022-11-08T19:41:03.104Z,44.60
2022-11-08T19:43:31.295Z,40.07
2022-11-08T19:46:03.546Z,39.23
2022-11-08T19:48:32.950Z,40.57
2022-11-08T19:51:02.935Z,42.90
2022-11-08T19:53:32.704Z,41.00
2022-11-08T19:56:01.697Z,43.73
2022-11-08T19:58:30.143Z,40.67
2022-11-08T20:00:58.299Z,39.97
2022-11-08T20:03:27.784Z,42.77
2022-11-08T20:05:56.143Z,45.80
2022-11-08T20:08:24.668Z,47.63
2022-11-08T20:10:54.118Z,47.20
2022-11-08T20:13:22.626Z,45.97
2022-11-08T20:15:50.938Z,47.23
2022-11-08T20:18:19.167Z,42.57
2022-11-08T20:20:47.643Z,42.03
2022-11-08T20:23:17.591Z,41.27
2022-11-08T20:25:45.608Z,37.67
2022-11-08T20:28:15.084Z,40.83
2022-11-08T20:30:43.170Z,43.77
2022-11-08T20:33:11.155Z,37.60
2022-11-08T20:35:39.807Z,43.03
2022-11-08T20:38:07.784Z,43.03
2022-11-08T20:40:38.408Z,40.13
2022-11-08T20:43:06.408Z,45.87
2022-11-08T20:45:39.465Z,41.57
2022-11-08T20:48:07.894Z,37.70
2022-11-08T20:50:39.184Z,38.33
2022-11-08T20:53:07.887Z,44.73
2022-11-08T20:55:35.878Z,38.00
2022-11-08T20:58:03.944Z,41.10
2022-11-08T21:00:57.335Z,44.87
2022-11-08T21:03:21.667Z,38.77
2022-11-08T21:05:54.519Z,47.70
2022-11-08T21:11:14.593Z,44.23
2022-11-08T21:13:44.683Z,42.90
2022-11-08T21:16:29.301Z,40.77
2022-11-08T21:19:00.160Z,36.30
2022-11-08T21:21:28.718Z,39.97
2022-11-08T21:23:56.933Z,42.37
2022-11-08T21:26:25.134Z,37.87
2022-11-08T21:28:53.364Z,38.60
2022-11-08T21:31:22.853Z,39.87
2022-11-08T21:33:51.057Z,38.33
2022-11-08T21:36:20.714Z,36.70
2022-11-08T21:38:48.828Z,37.40
2022-11-08T21:41:17.034Z,37.50
2022-11-08T21:43:45.886Z,37.60
2022-11-08T21:46:19.055Z,36.10
2022-11-08T21:48:47.947Z,40.93
2022-11-08T21:51:16.194Z,43.63
2022-11-08T21:53:54.065Z,43.27
2022-11-08T21:56:23.338Z,37.60
2022-11-08T21:58:51.494Z,34.33
2022-11-08T22:01:20.466Z,41.40
2022-11-08T22:03:49.624Z,37.37
2022-11-08T22:06:17.980Z,35.90
2022-11-08T22:08:47.495Z,37.37
2022-11-08T22:11:15.621Z,37.83
2022-11-08T22:13:43.746Z,38.57
2022-11-08T22:16:11.931Z,40.13
2022-11-08T22:19:03.733Z,31.47
2022-11-08T22:21:40.801Z,39.13
2022-11-08T22:24:17.211Z,40.80
2022-11-08T22:26:45.914Z,41.57
2022-11-08T22:29:14.278Z,38.67
2022-11-08T22:31:42.883Z,39.43
2022-11-08T22:34:11.902Z,38.23
2022-11-08T22:36:45.367Z,44.90
2022-11-08T22:39:18.165Z,40.03
2022-11-08T22:41:47.524Z,37.83
2022-11-08T22:44:16.190Z,39.73
2022-11-08T22:46:45.181Z,35.13
2022-11-08T22:49:14.324Z,36.43
2022-11-08T22:51:43.462Z,40.60
2022-11-08T22:54:12.068Z,35.07
2022-11-08T22:56:41.827Z,34.30
2022-11-08T22:59:10.704Z,33.90
2022-11-08T23:01:38.809Z,30.20
2022-11-08T23:04:11.061Z,35.77
2022-11-08T23:06:39.564Z,31.73
2022-11-08T23:09:08.024Z,35.63
2022-11-08T23:11:53.420Z,38.10
2022-11-08T23:14:40.375Z,35.23
2022-11-08T23:17:08.929Z,37.77
2022-11-08T23:19:54.336Z,36.07
2022-11-08T23:22:40.743Z,37.93
2022-11-08T23:25:09.556Z,43.27
2022-11-08T23:27:54.889Z,37.30
2022-11-08T23:30:42.027Z,40.03
2022-11-08T23:33:11.281Z,35.70
2022-11-08T23:35:59.429Z,40.50
2022-11-08T23:38:27.553Z,33.87
2022-11-08T23:41:16.812Z,35.23
2022-11-08T23:44:02.153Z,35.73
2022-11-08T23:46:31.544Z,38.13
2022-11-08T23:48:59.510Z,38.07
2022-11-08T23:51:27.526Z,36.93
2022-11-08T23:53:55.609Z,36.90
2022-11-08T23:56:24.861Z,33.57
2022-11-08T23:58:53.412Z,34.90
